メインページ
METAR-TAF:

METAR-TAF

空港 :

マレ, Hulhule Island, モルディブ

イブラヒム・ナシル国際空港

緯度: 04-12N, 経度: 073-32E, 海抜: 2m

現時点の気象観測

当レポートは1時間0分前の20:00(UTC)に作成
変向風 2kt
気温 29°C
湿度 79%
気圧 1011 hPa
視程10km以上
高度1900ftの雲はほとんどない

METAR: VRMM 292000Z VRB02KT 9999 FEW019 29/25 Q1011 NOSIG

時間: 02:00 (21:00 UTC)

予報

当レポートは4時間0分前の17:00(UTC)に作成
予報は29日の 18時(UTC)から 30日の 24時(UTC)まで有効
西の風 5kt
視程10km以上
高度1800ftの雲はほとんどない
30日の 03時(UTC)から 30日の 09時(UTC)まで一時的に
高度1800ftの雲はほとんどない, 積乱雲.

TAF: VRMM 291700Z 2918/3024 27005KT 9999 FEW018 TEMPO 3003/3009 FEW018CB

4,000以上の空港の気象観測と天気予報(METAR報とTAF報)

利用可能な観測所は地図上に黄色い丸と赤い丸で示す。

丸の上にカーソルを重ねると観測所名を参照できる。

次にクリックすると気象観測と天気予報を参照できる。

マップの切り替え:黒色「×」印の緑ボタンをクリックして拡大、「-」印の緑ボタンをクリックして縮小、緑色の三角印をクリックして隣りの地図に切り替え


METAR-TAF: